Time,TemperatureF,DewpointF,PressureIn,WindDirection,WindDirectionDegrees,WindSpeedMPH,WindSpeedGustMPH,Humidity,HourlyPrecipIn,Conditions,Clouds,dailyrainin,SoftwareType,DateUTC
2013-07-25 00:02:00,82.3,76.6,29.98,SE,125,8.0,9.0,83,0.00,,---,0.00,VWS V14.01,2013-07-25 05:02:00,
2013-07-25 00:07:00,82.3,76.6,29.98,SSE,158,4.0,10.0,83,0.00,,---,0.00,VWS V14.01,2013-07-25 05:07:00,
2013-07-25 00:12:00,82.2,76.5,29.98,SSE,159,4.0,11.0,83,0.00,,---,0.00,VWS V14.01,2013-07-25 05:12:00,
2013-07-25 00:17:00,82.2,76.5,29.98,SSE,149,9.0,11.0,83,0.00,,---,0.00,VWS V14.01,2013-07-25 05:17:00,
2013-07-25 00:22:00,82.0,76.0,29.98,SSE,166,7.0,11.0,82,0.00,,---,0.00,VWS V14.01,2013-07-25 05:22:00,
2013-07-25 00:27:00,82.1,76.1,29.98,SSE,153,6.0,11.0,82,0.00,,---,0.00,VWS V14.01,2013-07-25 05:27:00,
2013-07-25 00:32:00,82.2,76.5,29.98,SSE,166,7.0,11.0,83,0.00,,---,0.00,VWS V14.01,2013-07-25 05:32:00,
2013-07-25 00:37:00,82.2,76.5,29.98,South,171,6.0,11.0,83,0.00,,---,0.00,VWS V14.01,2013-07-25 05:37:00,
2013-07-25 00:42:00,82.1,76.4,29.99,South,169,6.0,12.0,83,0.00,,---,0.00,VWS V14.01,2013-07-25 05:42:00,
2013-07-25 00:47:00,82.1,76.4,29.98,SSE,150,7.0,12.0,83,0.00,,---,0.00,VWS V14.01,2013-07-25 05:47:00,
2013-07-25 00:52:00,82.1,76.4,29.98,South,186,2.0,12.0,83,0.00,,---,0.00,VWS V14.01,2013-07-25 05:52:00,
2013-07-25 00:57:00,82.1,76.4,29.98,SSE,149,5.0,12.0,83,0.00,,---,0.00,VWS V14.01,2013-07-25 05:57:00,
2013-07-25 01:02:00,82.0,76.3,29.98,South,170,3.0,6.0,83,0.00,,---,0.00,VWS V14.01,2013-07-25 06:02:00,
2013-07-25 01:07:00,82.0,76.3,29.99,SSE,150,7.0,9.0,83,0.00,,---,0.00,VWS V14.01,2013-07-25 06:07:00,
2013-07-25 01:12:00,82.0,76.3,29.98,SSW,212,9.0,10.0,83,0.00,,---,0.00,VWS V14.01,2013-07-25 06:12:00,
2013-07-25 01:17:00,82.1,76.4,29.98,South,191,5.0,10.0,83,0.00,,---,0.00,VWS V14.01,2013-07-25 06:17:00,
2013-07-25 01:22:00,82.1,76.4,29.98,SSE,152,5.0,11.0,83,0.00,,---,0.00,VWS V14.01,2013-07-25 06:22:00,
2013-07-25 01:27:00,82.1,76.4,29.98,SSW,193,8.0,11.0,83,0.00,,---,0.00,VWS V14.01,2013-07-25 06:27:00,
2013-07-25 01:32:00,82.2,76.9,29.98,SSE,160,6.0,11.0,84,0.00,,---,0.00,VWS V14.01,2013-07-25 06:32:00,
2013-07-25 01:37:00,82.2,76.9,29.99,SSE,152,8.0,11.0,84,0.00,,---,0.00,VWS V14.01,2013-07-25 06:37:00,
2013-07-25 01:42:00,82.1,76.4,29.99,SSW,204,6.0,13.0,83,0.00,,---,0.00,VWS V14.01,2013-07-25 06:42:00,
2013-07-25 01:47:00,82.1,76.4,29.99,SE,145,6.0,13.0,83,0.00,,---,0.00,VWS V14.01,2013-07-25 06:47:00,
2013-07-25 01:52:00,82.2,76.5,29.99,SE,131,4.0,13.0,83,0.00,,---,0.00,VWS V14.01,2013-07-25 06:52:00,
2013-07-25 01:57:00,82.1,76.1,29.98,South,175,5.0,13.0,82,0.00,,---,0.00,VWS V14.01,2013-07-25 06:57:00,
2013-07-25 02:02:00,82.0,76.3,29.99,South,177,8.0,9.0,83,0.00,,---,0.00,VWS V14.01,2013-07-25 07:02:00,
2013-07-25 02:07:00,82.0,76.3,29.99,South,172,8.0,12.0,83,0.00,,---,0.00,VWS V14.01,2013-07-25 07:07:00,
2013-07-25 02:12:00,82.0,76.3,29.98,SE,139,2.0,12.0,83,0.00,,---,0.00,VWS V14.01,2013-07-25 07:12:00,
2013-07-25 02:17:00,82.1,76.8,29.98,South,169,2.0,12.0,84,0.00,,---,0.00,VWS V14.01,2013-07-25 07:17:00,
2013-07-25 02:22:00,82.2,76.9,29.99,SSE,167,5.0,12.0,84,0.00,,---,0.00,VWS V14.01,2013-07-25 07:22:00,
2013-07-25 02:27:00,82.1,76.4,29.98,SSE,165,5.0,12.0,83,0.00,,---,0.00,VWS V14.01,2013-07-25 07:27:00,
2013-07-25 02:32:00,82.1,76.1,29.98,SSE,152,6.0,14.0,82,0.00,,---,0.00,VWS V14.01,2013-07-25 07:32:00,
2013-07-25 02:37:00,82.1,76.1,29.98,SSW,194,5.0,14.0,82,0.00,,---,0.00,VWS V14.01,2013-07-25 07:37:00,
2013-07-25 02:42:00,82.1,76.1,29.98,South,172,2.0,14.0,82,0.00,,---,0.00,VWS V14.01,2013-07-25 07:42:00,
2013-07-25 02:47:00,82.1,76.1,29.99,SSE,162,6.0,14.0,82,0.00,,---,0.00,VWS V14.01,2013-07-25 07:47:00,
2013-07-25 02:52:00,82.1,76.1,29.98,SSW,201,3.0,14.0,82,0.00,,---,0.00,VWS V14.01,2013-07-25 07:52:00,
2013-07-25 02:57:00,82.0,76.0,29.98,SSE,166,8.0,14.0,82,0.00,,---,0.00,VWS V14.01,2013-07-25 07:57:00,
2013-07-25 03:02:00,82.1,76.1,29.99,SE,129,3.0,9.0,82,0.00,,---,0.00,VWS V14.01,2013-07-25 08:02:00,
2013-07-25 03:07:00,82.0,76.3,29.99,South,177,8.0,10.0,83,0.00,,---,0.00,VWS V14.01,2013-07-25 08:07:00,
2013-07-25 03:12:00,82.1,76.1,29.99,SSW,197,4.0,13.0,82,0.00,,---,0.00,VWS V14.01,2013-07-25 08:12:00,
2013-07-25 03:17:00,82.1,76.1,29.99,SSW,194,6.0,13.0,82,0.00,,---,0.00,VWS V14.01,2013-07-25 08:17:00,
2013-07-25 03:22:00,82.1,76.4,29.99,SSE,163,5.0,13.0,83,0.00,,---,0.00,VWS V14.01,2013-07-25 08:22:00,
2013-07-25 03:27:00,82.1,76.4,29.99,SSE,156,4.0,13.0,83,0.00,,---,0.00,VWS V14.01,2013-07-25 08:27:00,
2013-07-25 03:32:00,82.0,76.3,29.99,South,183,5.0,13.0,83,0.00,,---,0.00,VWS V14.01,2013-07-25 08:32:00,
2013-07-25 03:37:00,82.0,76.3,29.99,South,175,3.0,13.0,83,0.00,,---,0.00,VWS V14.01,2013-07-25 08:37:00,
2013-07-25 03:42:00,81.9,76.2,29.99,South,184,7.0,13.0,83,0.00,,---,0.00,VWS V14.01,2013-07-25 08:42:00,
2013-07-25 03:47:00,81.9,76.2,29.99,SE,145,3.0,13.0,83,0.00,,---,0.00,VWS V14.01,2013-07-25 08:47:00,
2013-07-25 03:52:00,81.9,76.2,29.98,South,181,3.0,13.0,83,0.00,,---,0.00,VWS V14.01,2013-07-25 08:52:00,
2013-07-25 03:57:00,81.9,76.2,29.98,SW,232,5.0,13.0,83,0.00,,---,0.00,VWS V14.01,2013-07-25 08:57:00,
2013-07-25 04:02:00,81.9,76.2,29.98,SSE,150,7.0,11.0,83,0.00,,---,0.00,VWS V14.01,2013-07-25 09:02:00,
2013-07-25 04:07:00,81.9,76.2,29.98,SE,135,5.0,11.0,83,0.00,,---,0.00,VWS V14.01,2013-07-25 09:07:00,
2013-07-25 04:12:00,81.8,75.8,29.98,South,186,4.0,11.0,82,0.00,,---,0.00,VWS V14.01,2013-07-25 09:12:00,
2013-07-25 04:17:00,81.9,75.9,29.98,South,179,2.0,11.0,82,0.00,,---,0.00,VWS V14.01,2013-07-25 09:17:00,
2013-07-25 04:22:00,81.9,76.2,29.98,SSE,165,4.0,11.0,83,0.00,,---,0.00,VWS V14.01,2013-07-25 09:22:00,
2013-07-25 04:27:00,81.8,76.1,29.99,SW,235,6.0,11.0,83,0.00,,---,0.00,VWS V14.01,2013-07-25 09:27:00,
2013-07-25 04:32:00,81.8,76.1,29.98,South,176,6.0,11.0,83,0.00,,---,0.00,VWS V14.01,2013-07-25 09:32:00,
2013-07-25 04:37:00,81.8,76.1,29.98,SW,215,6.0,11.0,83,0.00,,---,0.00,VWS V14.01,2013-07-25 09:37:00,
2013-07-25 04:42:00,81.7,76.0,29.98,SSW,201,4.0,11.0,83,0.00,,---,0.00,VWS V14.01,2013-07-25 09:42:00,
2013-07-25 04:47:00,81.7,76.4,29.98,SE,145,4.0,11.0,84,0.00,,---,0.00,VWS V14.01,2013-07-25 09:47:00,
2013-07-25 04:52:00,81.7,76.8,29.98,SSW,210,6.0,11.0,85,0.00,,---,0.00,VWS V14.01,2013-07-25 09:52:00,
2013-07-25 04:57:00,81.7,76.8,29.98,South,190,3.0,11.0,85,0.00,,---,0.00,VWS V14.01,2013-07-25 09:57:00,
2013-07-25 05:02:00,81.6,76.3,29.98,SSW,201,7.0,7.0,84,0.00,,---,0.00,VWS V14.01,2013-07-25 10:02:00,
2013-07-25 05:07:00,81.6,76.3,29.98,SSE,150,3.0,7.0,84,0.00,,---,0.00,VWS V14.01,2013-07-25 10:07:00,
2013-07-25 05:12:00,81.7,76.4,29.99,SW,224,0.0,8.0,84,0.00,,---,0.00,VWS V14.01,2013-07-25 10:12:00,
2013-07-25 05:17:00,81.6,76.3,29.99,WSW,242,5.0,8.0,84,0.00,,---,0.00,VWS V14.01,2013-07-25 10:17:00,
2013-07-25 05:22:00,81.6,76.3,29.99,SW,235,5.0,8.0,84,0.00,,---,0.00,VWS V14.01,2013-07-25 10:22:00,
2013-07-25 05:27:00,81.6,76.3,29.99,SW,214,4.0,8.0,84,0.00,,---,0.00,VWS V14.01,2013-07-25 10:27:00,
2013-07-25 05:32:00,81.5,75.8,29.99,SSE,168,5.0,10.0,83,0.00,,---,0.00,VWS V14.01,2013-07-25 10:32:00,
2013-07-25 05:38:00,81.7,76.4,29.99,SW,221,6.0,10.0,84,0.00,,---,0.00,VWS V14.01,2013-07-25 10:38:00,
2013-07-25 05:42:00,81.7,76.4,29.99,South,183,5.0,10.0,84,0.00,,---,0.00,VWS V14.01,2013-07-25 10:42:00,
2013-07-25 05:47:00,81.7,76.4,29.99,SSE,150,7.0,10.0,84,0.00,,---,0.00,VWS V14.01,2013-07-25 10:47:00,
2013-07-25 05:52:00,81.6,76.3,29.99,South,183,6.0,10.0,84,0.00,,---,0.00,VWS V14.01,2013-07-25 10:52:00,
2013-07-25 05:58:00,81.6,76.3,29.99,WSW,255,5.0,10.0,84,0.00,,---,0.00,VWS V14.01,2013-07-25 10:58:00,
2013-07-25 06:02:00,81.6,76.3,30.00,SSE,163,2.0,5.0,84,0.00,,---,0.00,VWS V14.01,2013-07-25 11:02:00,
2013-07-25 06:07:00,81.6,76.3,30.00,South,179,3.0,9.0,84,0.00,,---,0.00,VWS V14.01,2013-07-25 11:07:00,
2013-07-25 06:12:00,81.6,76.3,30.00,South,182,8.0,10.0,84,0.00,,---,0.00,VWS V14.01,2013-07-25 11:12:00,
2013-07-25 06:17:00,81.7,76.4,30.00,SW,219,3.0,10.0,84,0.00,,---,0.00,VWS V14.01,2013-07-25 11:17:00,
2013-07-25 06:22:00,81.7,76.8,30.00,South,183,2.0,10.0,85,0.00,,---,0.00,VWS V14.01,2013-07-25 11:22:00,
2013-07-25 06:28:00,81.7,76.8,30.00,South,183,1.0,10.0,85,0.00,,---,0.00,VWS V14.01,2013-07-25 11:28:00,
2013-07-25 06:33:00,81.7,76.8,30.00,SW,232,2.0,10.0,85,0.00,,---,0.00,VWS V14.01,2013-07-25 11:33:00,
2013-07-25 06:38:00,81.7,76.8,30.00,SW,215,2.0,10.0,85,0.00,,---,0.00,VWS V14.01,2013-07-25 11:38:00,
2013-07-25 06:43:00,81.6,77.0,30.00,SW,236,2.0,10.0,86,0.00,,---,0.00,VWS V14.01,2013-07-25 11:43:00,
2013-07-25 06:48:00,81.6,77.0,30.00,East,100,5.0,10.0,86,0.00,,---,0.00,VWS V14.01,2013-07-25 11:48:00,
2013-07-25 06:53:00,81.6,77.0,30.00,SSW,204,4.0,10.0,86,0.00,,---,0.00,VWS V14.01,2013-07-25 11:53:00,
2013-07-25 06:58:00,81.7,77.1,30.00,SW,225,0.0,10.0,86,0.00,,---,0.00,VWS V14.01,2013-07-25 11:58:00,
2013-07-25 07:03:00,81.6,77.0,30.01,SSW,208,5.0,5.0,86,0.00,,---,0.00,VWS V14.01,2013-07-25 12:03:00,
2013-07-25 07:08:00,81.8,76.8,30.01,SSW,212,6.0,7.0,85,0.00,,---,0.00,VWS V14.01,2013-07-25 12:08:00,
2013-07-25 07:13:00,82.0,77.1,30.01,SSW,209,5.0,8.0,85,0.00,,---,0.00,VWS V14.01,2013-07-25 12:13:00,
2013-07-25 07:18:00,82.2,76.9,30.00,SE,140,3.0,8.0,84,0.00,,---,0.00,VWS V14.01,2013-07-25 12:18:00,
2013-07-25 07:23:00,82.5,77.2,30.01,South,172,5.0,8.0,84,0.00,,---,0.00,VWS V14.01,2013-07-25 12:23:00,
2013-07-25 07:33:00,82.5,77.2,30.01,SSE,157,2.0,8.0,84,0.00,,---,0.00,VWS V14.01,2013-07-25 12:33:00,
2013-07-25 07:38:00,82.9,77.6,30.01,SW,225,0.0,8.0,84,0.00,,---,0.00,VWS V14.01,2013-07-25 12:38:00,
2013-07-25 07:43:00,83.0,77.3,30.01,South,191,0.0,8.0,83,0.00,,---,0.00,VWS V14.01,2013-07-25 12:43:00,
2013-07-25 07:48:00,83.3,78.0,30.02,SSE,167,3.0,8.0,84,0.00,,---,0.00,VWS V14.01,2013-07-25 12:48:00,
2013-07-25 07:53:00,83.6,77.9,30.01,SSW,200,0.0,8.0,83,0.00,,---,0.00,VWS V14.01,2013-07-25 12:53:00,
2013-07-25 07:58:00,83.8,78.1,30.01,SW,225,1.0,8.0,83,0.00,,---,0.00,VWS V14.01,2013-07-25 12:58:00,
2013-07-25 08:03:00,83.9,77.8,30.01,SSW,204,1.0,5.0,82,0.00,,---,0.00,VWS V14.01,2013-07-25 13:03:00,
2013-07-25 08:08:00,84.1,78.0,30.01,South,171,3.0,6.0,82,0.00,,---,0.00,VWS V14.01,2013-07-25 13:08:00,
2013-07-25 08:13:00,84.3,77.8,30.01,SSW,211,3.0,6.0,81,0.00,,---,0.00,VWS V14.01,2013-07-25 13:13:00,
2013-07-25 08:18:00,84.5,77.7,30.01,SW,233,2.0,7.0,80,0.00,,---,0.00,VWS V14.01,2013-07-25 13:18:00,
2013-07-25 08:23:00,84.7,77.8,30.01,SSW,201,2.0,7.0,80,0.00,,---,0.00,VWS V14.01,2013-07-25 13:23:00,
2013-07-25 08:28:00,84.9,78.0,30.02,South,191,2.0,8.0,80,0.00,,---,0.00,VWS V14.01,2013-07-25 13:28:00,
2013-07-25 08:33:00,85.0,77.8,30.02,SE,133,3.0,8.0,79,0.00,,---,0.00,VWS V14.01,2013-07-25 13:33:00,
2013-07-25 08:38:00,85.2,77.9,30.02,South,170,1.0,8.0,79,0.00,,---,0.00,VWS V14.01,2013-07-25 13:38:00,
2013-07-25 08:43:00,85.3,78.1,30.02,SSW,205,2.0,8.0,79,0.00,,---,0.00,VWS V14.01,2013-07-25 13:43:00,
2013-07-25 08:48:00,85.6,78.3,30.02,South,190,4.0,8.0,79,0.00,,---,0.00,VWS V14.01,2013-07-25 13:48:00,
2013-07-25 08:53:00,85.8,78.2,30.02,West,260,4.0,8.0,78,0.00,,---,0.00,VWS V14.01,2013-07-25 13:53:00,
2013-07-25 08:58:00,85.8,77.8,30.02,SW,214,3.0,8.0,77,0.00,,---,0.00,VWS V14.01,2013-07-25 13:58:00,
2013-07-25 09:03:00,86.0,78.3,30.02,SW,231,2.0,5.0,78,0.00,,---,0.00,VWS V14.01,2013-07-25 14:03:00,
2013-07-25 09:08:00,86.3,77.8,30.02,SW,232,4.0,6.0,76,0.00,,---,0.00,VWS V14.01,2013-07-25 14:08:00,
2013-07-25 09:13:00,86.1,77.7,30.02,SW,228,1.0,8.0,76,0.00,,---,0.00,VWS V14.01,2013-07-25 14:13:00,
2013-07-25 09:18:00,86.1,77.7,30.02,South,172,2.0,9.0,76,0.00,,---,0.00,VWS V14.01,2013-07-25 14:18:00,
2013-07-25 09:23:00,86.5,78.0,30.02,SSE,165,3.0,9.0,76,0.00,,---,0.00,VWS V14.01,2013-07-25 14:23:00,
2013-07-25 09:28:00,86.7,77.8,30.03,South,176,4.0,9.0,75,0.00,,---,0.00,VWS V14.01,2013-07-25 14:28:00,
2013-07-25 09:33:00,86.8,77.9,30.03,SW,231,3.0,9.0,75,0.00,,---,0.00,VWS V14.01,2013-07-25 14:33:00,
2013-07-25 09:38:00,86.9,78.4,30.03,West,278,5.0,9.0,76,0.00,,---,0.00,VWS V14.01,2013-07-25 14:38:00,
2013-07-25 09:43:00,86.7,77.8,30.03,West,269,3.0,9.0,75,0.00,,---,0.00,VWS V14.01,2013-07-25 14:43:00,
2013-07-25 09:48:00,86.9,78.0,30.03,SW,224,6.0,9.0,75,0.00,,---,0.00,VWS V14.01,2013-07-25 14:48:00,
2013-07-25 09:53:00,87.0,78.1,30.03,West,264,5.0,9.0,75,0.00,,---,0.00,VWS V14.01,2013-07-25 14:53:00,
2013-07-25 09:58:00,86.8,77.9,30.04,SW,232,3.0,10.0,75,0.00,,---,0.00,VWS V14.01,2013-07-25 14:58:00,
2013-07-25 10:03:00,86.8,77.9,30.03,WSW,246,4.0,7.0,75,0.00,,---,0.00,VWS V14.01,2013-07-25 15:03:00,
2013-07-25 10:08:00,86.7,77.8,30.03,SSE,163,2.0,8.0,75,0.00,,---,0.00,VWS V14.01,2013-07-25 15:08:00,
2013-07-25 10:13:00,87.0,77.7,30.03,SE,143,1.0,8.0,74,0.00,,---,0.00,VWS V14.01,2013-07-25 15:13:00,
2013-07-25 10:18:00,87.4,78.1,30.04,SW,223,7.0,8.0,74,0.00,,---,0.00,VWS V14.01,2013-07-25 15:18:00,
2013-07-25 10:23:00,87.1,77.8,30.04,South,186,5.0,8.0,74,0.00,,---,0.00,VWS V14.01,2013-07-25 15:23:00,
2013-07-25 10:28:00,87.1,77.4,30.04,WSW,242,1.0,9.0,73,0.00,,---,0.00,VWS V14.01,2013-07-25 15:28:00,
2013-07-25 10:33:00,87.2,77.9,30.04,West,262,3.0,9.0,74,0.00,,---,0.00,VWS V14.01,2013-07-25 15:33:00,
2013-07-25 10:38:00,87.0,77.7,30.04,West,269,2.0,9.0,74,0.00,,---,0.00,VWS V14.01,2013-07-25 15:38:00,
2013-07-25 10:43:00,87.1,78.2,30.04,West,267,2.0,9.0,75,0.00,,---,0.00,VWS V14.01,2013-07-25 15:43:00,
2013-07-25 10:48:00,87.2,77.9,30.04,SSE,167,6.0,9.0,74,0.00,,---,0.00,VWS V14.01,2013-07-25 15:48:00,
2013-07-25 10:53:00,87.4,78.5,30.04,SW,219,3.0,9.0,75,0.00,,---,0.00,VWS V14.01,2013-07-25 15:53:00,
2013-07-25 10:58:00,87.8,78.1,30.04,WSW,248,3.0,9.0,73,0.00,,---,0.00,VWS V14.01,2013-07-25 15:58:00,
2013-07-25 11:03:00,88.1,78.4,30.04,WSW,238,3.0,6.0,73,0.00,,---,0.00,VWS V14.01,2013-07-25 16:03:00,
2013-07-25 11:04:00,88.1,78.4,30.04,SW,221,2.0,6.0,73,0.00,,---,0.00,VWS V14.01,2013-07-25 16:04:00,
2013-07-25 11:09:00,88.3,78.1,30.04,SW,224,4.0,9.0,72,0.00,,---,0.00,VWS V14.01,2013-07-25 16:09:00,
2013-07-25 11:14:00,88.3,78.1,30.04,SSW,207,3.0,10.0,72,0.00,,---,0.00,VWS V14.01,2013-07-25 16:14:00,
2013-07-25 11:19:00,88.3,78.1,30.04,South,172,7.0,10.0,72,0.00,,---,0.00,VWS V14.01,2013-07-25 16:19:00,
2013-07-25 11:24:00,88.2,78.4,30.04,SSW,206,3.0,10.0,73,0.00,,---,0.00,VWS V14.01,2013-07-25 16:24:00,
2013-07-25 11:29:00,88.5,78.3,30.04,WNW,290,0.0,10.0,72,0.00,,---,0.00,VWS V14.01,2013-07-25 16:29:00,
2013-07-25 11:34:00,88.7,78.9,30.04,West,259,4.0,10.0,73,0.00,,---,0.00,VWS V14.01,2013-07-25 16:34:00,
2013-07-25 11:39:00,88.6,78.0,30.04,SW,215,4.0,10.0,71,0.00,,---,0.00,VWS V14.01,2013-07-25 16:39:00,
2013-07-25 11:44:00,88.6,78.8,30.04,South,173,2.0,10.0,73,0.00,,---,0.00,VWS V14.01,2013-07-25 16:44:00,
2013-07-25 11:49:00,88.4,78.2,30.04,South,173,1.0,10.0,72,0.00,,---,0.00,VWS V14.01,2013-07-25 16:49:00,
2013-07-25 11:54:00,88.4,78.7,30.04,SW,228,2.0,10.0,73,0.00,,---,0.00,VWS V14.01,2013-07-25 16:54:00,
2013-07-25 11:59:00,88.2,77.6,30.04,SSE,162,5.0,10.0,71,0.00,,---,0.00,VWS V14.01,2013-07-25 16:59:00,
2013-07-25 12:04:00,88.3,78.1,30.04,SW,218,3.0,8.0,72,0.00,,---,0.00,VWS V14.01,2013-07-25 17:04:00,
2013-07-25 12:09:00,88.5,78.3,30.04,SSE,156,3.0,8.0,72,0.00,,---,0.00,VWS V14.01,2013-07-25 17:09:00,
2013-07-25 12:14:00,88.6,78.4,30.04,SW,214,3.0,8.0,72,0.00,,---,0.00,VWS V14.01,2013-07-25 17:14:00,
2013-07-25 12:19:00,88.4,77.8,30.04,South,177,5.0,8.0,71,0.00,,---,0.00,VWS V14.01,2013-07-25 17:19:00,
2013-07-25 12:24:00,88.5,77.9,30.05,SSW,208,5.0,8.0,71,0.00,,---,0.00,VWS V14.01,2013-07-25 17:24:00,
2013-07-25 12:29:00,88.7,78.5,30.04,South,179,2.0,8.0,72,0.00,,---,0.00,VWS V14.01,2013-07-25 17:29:00,
2013-07-25 12:34:00,88.7,78.5,30.04,SSW,208,3.0,8.0,72,0.00,,---,0.00,VWS V14.01,2013-07-25 17:34:00,
2013-07-25 12:39:00,88.7,78.5,30.04,SSW,195,1.0,8.0,72,0.00,,---,0.00,VWS V14.01,2013-07-25 17:39:00,
2013-07-25 12:44:00,88.8,77.8,30.04,SSE,165,6.0,8.0,70,0.00,,---,0.00,VWS V14.01,2013-07-25 17:44:00,
2013-07-25 12:49:00,88.8,78.2,30.04,SW,218,3.0,8.0,71,0.00,,---,0.00,VWS V14.01,2013-07-25 17:49:00,
2013-07-25 12:54:00,89.1,78.5,30.04,East,95,2.0,8.0,71,0.00,,---,0.00,VWS V14.01,2013-07-25 17:54:00,
2013-07-25 12:59:00,89.4,78.8,30.04,SSE,165,3.0,8.0,71,0.00,,---,0.00,VWS V14.01,2013-07-25 17:59:00,
2013-07-25 13:04:00,89.4,78.3,30.04,SSE,150,6.0,7.0,70,0.00,,---,0.00,VWS V14.01,2013-07-25 18:04:00,
2013-07-25 13:09:00,89.2,78.6,30.04,South,181,6.0,7.0,71,0.00,,---,0.00,VWS V14.01,2013-07-25 18:09:00,
2013-07-25 13:14:00,89.3,78.2,30.05,West,260,1.0,7.0,70,0.00,,---,0.00,VWS V14.01,2013-07-25 18:14:00,
2013-07-25 13:19:00,89.5,78.0,30.05,SSE,158,6.0,7.0,69,0.00,,---,0.00,VWS V14.01,2013-07-25 18:19:00,
2013-07-25 13:24:00,89.8,78.3,30.05,South,191,5.0,9.0,69,0.00,,---,0.00,VWS V14.01,2013-07-25 18:24:00,
2013-07-25 13:29:00,90.0,78.5,30.05,SSW,208,6.0,9.0,69,0.00,,---,0.00,VWS V14.01,2013-07-25 18:29:00,
2013-07-25 13:34:00,89.8,78.7,30.04,SW,215,2.0,9.0,70,0.00,,---,0.00,VWS V14.01,2013-07-25 18:34:00,
2013-07-25 13:39:00,90.2,78.7,30.04,SW,217,6.0,9.0,69,0.00,,---,0.00,VWS V14.01,2013-07-25 18:39:00,
2013-07-25 13:44:00,89.7,77.7,30.04,SSW,200,6.0,9.0,68,0.00,,---,0.00,VWS V14.01,2013-07-25 18:44:00,
2013-07-25 13:49:00,89.6,78.1,30.04,SSE,152,5.0,10.0,69,0.00,,---,0.00,VWS V14.01,2013-07-25 18:49:00,
2013-07-25 13:54:00,89.7,78.6,30.04,SE,133,7.0,10.0,70,0.00,,---,0.00,VWS V14.01,2013-07-25 18:54:00,
2013-07-25 13:59:00,89.9,77.5,30.04,SSW,193,7.0,10.0,67,0.00,,---,0.00,VWS V14.01,2013-07-25 18:59:00,
2013-07-25 14:04:00,89.9,78.4,30.04,SW,219,3.0,7.0,69,0.00,,---,0.00,VWS V14.01,2013-07-25 19:04:00,
2013-07-25 14:09:00,89.8,77.8,30.04,South,188,4.0,11.0,68,0.00,,---,0.00,VWS V14.01,2013-07-25 19:09:00,
2013-07-25 14:14:00,89.4,77.9,30.04,South,179,7.0,11.0,69,0.00,,---,0.00,VWS V14.01,2013-07-25 19:14:00,
2013-07-25 14:19:00,89.2,78.1,30.04,South,180,6.0,11.0,70,0.00,,---,0.00,VWS V14.01,2013-07-25 19:19:00,
2013-07-25 14:24:00,89.4,78.8,30.04,SSW,195,6.0,11.0,71,0.00,,---,0.00,VWS V14.01,2013-07-25 19:24:00,
2013-07-25 14:29:00,89.2,78.6,30.03,SE,134,5.0,11.0,71,0.00,,---,0.00,VWS V14.01,2013-07-25 19:29:00,
2013-07-25 14:34:00,88.9,78.7,30.03,SSE,167,6.0,11.0,72,0.00,,---,0.00,VWS V14.01,2013-07-25 19:34:00,
2013-07-25 14:39:00,89.1,78.5,30.03,SSE,155,5.0,11.0,71,0.00,,---,0.00,VWS V14.01,2013-07-25 19:39:00,
2013-07-25 14:44:00,89.2,79.8,30.03,South,183,3.0,11.0,74,0.00,,---,0.00,VWS V14.01,2013-07-25 19:44:00,
2013-07-25 14:49:00,89.2,79.0,30.03,ESE,110,6.0,11.0,72,0.00,,---,0.00,VWS V14.01,2013-07-25 19:49:00,
2013-07-25 14:54:00,88.8,79.0,30.04,SSE,159,6.0,11.0,73,0.00,,---,0.00,VWS V14.01,2013-07-25 19:54:00,
2013-07-25 14:59:00,89.0,78.8,30.03,ESE,112,6.0,11.0,72,0.00,,---,0.00,VWS V14.01,2013-07-25 19:59:00,
2013-07-25 15:04:00,89.3,79.1,30.03,SSE,162,5.0,9.0,72,0.00,,---,0.00,VWS V14.01,2013-07-25 20:04:00,
2013-07-25 15:09:00,89.2,79.0,30.03,East,98,11.0,11.0,72,0.00,,---,0.00,VWS V14.01,2013-07-25 20:09:00,
2013-07-25 15:14:00,88.8,79.0,30.03,SSE,150,6.0,11.0,73,0.00,,---,0.00,VWS V14.01,2013-07-25 20:14:00,
2013-07-25 15:19:00,88.8,79.4,30.03,SSW,195,5.0,11.0,74,0.00,,---,0.00,VWS V14.01,2013-07-25 20:19:00,
2013-07-25 15:24:00,89.1,78.9,30.03,SSW,207,3.0,11.0,72,0.00,,---,0.00,VWS V14.01,2013-07-25 20:24:00,
2013-07-25 15:29:00,88.8,79.0,30.03,SSW,201,4.0,11.0,73,0.00,,---,0.00,VWS V14.01,2013-07-25 20:29:00,
2013-07-25 15:34:00,88.8,78.6,30.02,SE,146,7.0,11.0,72,0.00,,---,0.00,VWS V14.01,2013-07-25 20:34:00,
2013-07-25 15:39:00,88.6,78.8,30.02,ESE,112,4.0,11.0,73,0.00,,---,0.00,VWS V14.01,2013-07-25 20:39:00,
2013-07-25 15:44:00,88.6,78.8,30.02,ESE,111,4.0,11.0,73,0.00,,---,0.00,VWS V14.01,2013-07-25 20:44:00,
2013-07-25 15:49:00,88.7,78.5,30.02,SSE,149,6.0,11.0,72,0.00,,---,0.00,VWS V14.01,2013-07-25 20:49:00,
2013-07-25 15:54:00,88.8,78.6,30.02,SE,146,4.0,11.0,72,0.00,,---,0.00,VWS V14.01,2013-07-25 20:54:00,
2013-07-25 15:59:00,88.6,78.4,30.02,SE,124,8.0,11.0,72,0.00,,---,0.00,VWS V14.01,2013-07-25 20:59:00,
2013-07-25 16:05:00,88.5,78.3,30.02,SSE,162,6.0,11.0,72,0.00,,---,0.00,VWS V14.01,2013-07-25 21:05:00,
2013-07-25 16:10:00,88.7,78.9,30.02,ESE,115,4.0,11.0,73,0.00,,---,0.00,VWS V14.01,2013-07-25 21:10:00,
2013-07-25 16:15:00,88.8,78.6,30.02,SE,145,7.0,11.0,72,0.00,,---,0.00,VWS V14.01,2013-07-25 21:15:00,
2013-07-25 16:20:00,88.6,78.8,30.02,SSE,158,3.0,11.0,73,0.00,,---,0.00,VWS V14.01,2013-07-25 21:20:00,
2013-07-25 16:25:00,88.6,78.8,30.02,SE,135,7.0,11.0,73,0.00,,---,0.00,VWS V14.01,2013-07-25 21:25:00,
2013-07-25 16:30:00,88.6,79.2,30.02,SSE,158,6.0,11.0,74,0.00,,---,0.00,VWS V14.01,2013-07-25 21:30:00,
2013-07-25 16:35:00,88.6,78.4,30.02,SE,141,6.0,11.0,72,0.00,,---,0.00,VWS V14.01,2013-07-25 21:35:00,
2013-07-25 16:40:00,88.3,78.6,30.02,SE,143,8.0,11.0,73,0.00,,---,0.00,VWS V14.01,2013-07-25 21:40:00,
2013-07-25 16:45:00,88.2,78.0,30.02,SSE,153,11.0,11.0,72,0.00,,---,0.00,VWS V14.01,2013-07-25 21:45:00,
2013-07-25 16:50:00,88.1,79.2,30.02,SE,133,9.0,12.0,75,0.00,,---,0.00,VWS V14.01,2013-07-25 21:50:00,
2013-07-25 16:55:00,88.0,78.7,30.02,SE,146,9.0,12.0,74,0.00,,---,0.00,VWS V14.01,2013-07-25 21:55:00,
2013-07-25 17:00:00,87.9,78.6,30.02,WNW,293,3.0,12.0,74,0.00,,---,0.00,VWS V14.01,2013-07-25 22:00:00,
2013-07-25 17:05:00,88.0,78.7,30.02,SSE,150,4.0,11.0,74,0.00,,---,0.00,VWS V14.01,2013-07-25 22:05:00,
2013-07-25 17:10:00,87.9,78.6,30.02,South,177,5.0,11.0,74,0.00,,---,0.00,VWS V14.01,2013-07-25 22:10:00,
2013-07-25 17:15:00,87.9,78.2,30.02,SE,145,11.0,13.0,73,0.00,,---,0.00,VWS V14.01,2013-07-25 22:15:00,
2013-07-25 17:20:00,87.8,78.5,30.02,SSE,152,11.0,14.0,74,0.00,,---,0.00,VWS V14.01,2013-07-25 22:20:00,
2013-07-25 17:26:00,87.8,78.9,30.02,SSE,155,8.0,14.0,75,0.00,,---,0.00,VWS V14.01,2013-07-25 22:26:00,
2013-07-25 17:31:00,87.7,78.8,30.02,ESE,122,6.0,14.0,75,0.00,,---,0.00,VWS V14.01,2013-07-25 22:31:00,
2013-07-25 17:36:00,87.7,78.4,30.02,South,179,6.0,14.0,74,0.00,,---,0.00,VWS V14.01,2013-07-25 22:36:00,
2013-07-25 17:41:00,87.7,78.8,30.02,SSE,152,7.0,14.0,75,0.00,,---,0.00,VWS V14.01,2013-07-25 22:41:00,
2013-07-25 17:46:00,87.6,79.1,30.02,SSE,167,7.0,14.0,76,0.00,,---,0.00,VWS V14.01,2013-07-25 22:46:00,
2013-07-25 17:51:00,87.5,78.6,30.02,SE,124,3.0,14.0,75,0.00,,---,0.00,VWS V14.01,2013-07-25 22:51:00,
2013-07-25 17:56:00,87.4,78.1,30.02,SE,133,5.0,14.0,74,0.00,,---,0.00,VWS V14.01,2013-07-25 22:56:00,
2013-07-25 18:01:00,87.3,78.4,30.02,ENE,62,4.0,8.0,75,0.00,,---,0.00,VWS V14.01,2013-07-25 23:01:00,
2013-07-25 18:06:00,87.4,78.5,30.01,South,179,8.0,13.0,75,0.00,,---,0.00,VWS V14.01,2013-07-25 23:06:00,
2013-07-25 18:11:00,87.2,78.7,30.01,SSE,165,9.0,13.0,76,0.00,,---,0.00,VWS V14.01,2013-07-25 23:11:00,
2013-07-25 18:16:00,87.3,79.2,30.01,South,179,7.0,13.0,77,0.00,,---,0.00,VWS V14.01,2013-07-25 23:16:00,
2013-07-25 18:22:00,87.3,78.8,30.01,SE,129,7.0,13.0,76,0.00,,---,0.00,VWS V14.01,2013-07-25 23:22:00,
2013-07-25 18:27:00,87.0,78.5,30.01,SSE,163,7.0,15.0,76,0.00,,---,0.00,VWS V14.01,2013-07-25 23:27:00,
2013-07-25 18:32:00,86.8,78.7,30.01,SE,143,4.0,15.0,77,0.00,,---,0.00,VWS V14.01,2013-07-25 23:32:00,
2013-07-25 18:37:00,86.7,78.6,30.01,ESE,116,8.0,15.0,77,0.00,,---,0.00,VWS V14.01,2013-07-25 23:37:00,
2013-07-25 18:42:00,86.6,78.5,30.01,South,169,10.0,15.0,77,0.00,,---,0.00,VWS V14.01,2013-07-25 23:42:00,
2013-07-25 18:47:00,86.6,78.9,30.01,SE,131,6.0,15.0,78,0.00,,---,0.00,VWS V14.01,2013-07-25 23:47:00,
2013-07-25 18:53:00,86.6,78.9,30.01,SW,214,7.0,15.0,78,0.00,,---,0.00,VWS V14.01,2013-07-25 23:53:00,
2013-07-25 18:58:00,86.6,78.9,30.01,SE,139,7.0,15.0,78,0.00,,---,0.00,VWS V14.01,2013-07-25 23:58:00,
2013-07-25 19:03:00,86.5,78.8,30.01,SSE,165,9.0,12.0,78,0.00,,---,0.00,VWS V14.01,2013-07-26 00:03:00,
2013-07-25 19:08:00,86.3,78.6,30.01,SE,138,11.0,12.0,78,0.00,,---,0.00,VWS V14.01,2013-07-26 00:08:00,
2013-07-25 19:13:00,86.2,78.9,30.01,SSE,153,8.0,12.0,79,0.00,,---,0.00,VWS V14.01,2013-07-26 00:13:00,
2013-07-25 19:18:00,86.0,78.7,30.01,SSE,153,6.0,12.0,79,0.00,,---,0.00,VWS V14.01,2013-07-26 00:18:00,
2013-07-25 19:23:00,85.9,78.6,30.01,SSE,162,7.0,12.0,79,0.00,,---,0.00,VWS V14.01,2013-07-26 00:23:00,
2013-07-25 19:28:00,85.6,78.7,30.01,SE,139,9.0,12.0,80,0.00,,---,0.00,VWS V14.01,2013-07-26 00:28:00,
2013-07-25 19:33:00,85.3,78.4,30.01,SSE,152,11.0,14.0,80,0.00,,---,0.00,VWS V14.01,2013-07-26 00:33:00,
2013-07-25 19:38:00,85.0,78.5,30.01,South,170,6.0,14.0,81,0.00,,---,0.00,VWS V14.01,2013-07-26 00:38:00,
2013-07-25 19:43:00,84.8,78.7,30.01,SSE,152,7.0,14.0,82,0.00,,---,0.00,VWS V14.01,2013-07-26 00:43:00,
2013-07-25 19:49:00,84.7,78.6,30.01,SE,124,9.0,14.0,82,0.00,,---,0.00,VWS V14.01,2013-07-26 00:49:00,
2013-07-25 19:54:00,84.7,78.6,30.01,SSE,156,6.0,14.0,82,0.00,,---,0.00,VWS V14.01,2013-07-26 00:54:00,
2013-07-25 19:59:00,84.7,78.6,30.01,SSE,150,6.0,14.0,82,0.00,,---,0.00,VWS V14.01,2013-07-26 00:59:00,
2013-07-25 20:04:00,84.6,78.5,30.01,SSW,198,6.0,12.0,82,0.00,,---,0.00,VWS V14.01,2013-07-26 01:04:00,
2013-07-25 20:09:00,84.6,79.2,30.01,East,96,3.0,12.0,84,0.00,,---,0.00,VWS V14.01,2013-07-26 01:09:00,
2013-07-25 20:14:00,84.5,79.1,30.01,East,98,5.0,12.0,84,0.00,,---,0.00,VWS V14.01,2013-07-26 01:14:00,
2013-07-25 20:19:00,84.3,78.9,30.01,ESE,121,8.0,12.0,84,0.00,,---,0.00,VWS V14.01,2013-07-26 01:19:00,
2013-07-25 20:24:00,84.2,78.8,30.01,ESE,110,6.0,13.0,84,0.00,,---,0.00,VWS V14.01,2013-07-26 01:24:00,
2013-07-25 20:29:00,84.1,78.8,30.01,SE,146,7.0,13.0,84,0.00,,---,0.00,VWS V14.01,2013-07-26 01:29:00,
2013-07-25 20:34:00,84.0,78.3,30.01,South,187,7.0,13.0,83,0.00,,---,0.00,VWS V14.01,2013-07-26 01:34:00,
2013-07-25 20:39:00,84.0,78.3,30.01,SSE,149,7.0,13.0,83,0.00,,---,0.00,VWS V14.01,2013-07-26 01:39:00,
2013-07-25 20:44:00,84.0,78.3,30.01,SSE,163,4.0,14.0,83,0.00,,---,0.00,VWS V14.01,2013-07-26 01:44:00,
2013-07-25 20:49:00,84.1,78.4,30.01,SSE,165,6.0,14.0,83,0.00,,---,0.00,VWS V14.01,2013-07-26 01:49:00,
2013-07-25 20:54:00,84.1,78.4,30.02,SSE,156,11.0,14.0,83,0.00,,---,0.00,VWS V14.01,2013-07-26 01:54:00,
2013-07-25 20:59:00,84.1,78.4,30.02,SE,130,8.0,14.0,83,0.00,,---,0.00,VWS V14.01,2013-07-26 01:59:00,
2013-07-25 21:05:00,84.0,78.3,30.02,SSE,150,8.0,13.0,83,0.00,,---,0.00,VWS V14.01,2013-07-26 02:05:00,
2013-07-25 21:10:00,84.0,78.3,30.02,SSE,162,9.0,13.0,83,0.00,,---,0.00,VWS V14.01,2013-07-26 02:10:00,
2013-07-25 21:15:00,84.1,78.8,30.02,SE,129,9.0,14.0,84,0.00,,---,0.00,VWS V14.01,2013-07-26 02:15:00,
2013-07-25 21:20:00,84.0,78.7,30.02,SSE,162,10.0,14.0,84,0.00,,---,0.00,VWS V14.01,2013-07-26 02:20:00,
2013-07-25 21:25:00,84.0,78.7,30.02,SSE,156,3.0,14.0,84,0.00,,---,0.00,VWS V14.01,2013-07-26 02:25:00,
2013-07-25 21:30:00,83.9,78.6,30.02,SSE,153,9.0,14.0,84,0.00,,---,0.00,VWS V14.01,2013-07-26 02:30:00,
2013-07-25 21:35:00,83.9,78.6,30.03,SSE,163,9.0,14.0,84,0.00,,---,0.00,VWS V14.01,2013-07-26 02:35:00,
2013-07-25 21:40:00,83.9,78.6,30.03,SSE,153,4.0,14.0,84,0.00,,---,0.00,VWS V14.01,2013-07-26 02:40:00,
2013-07-25 21:45:00,83.9,78.9,30.02,SSE,165,7.0,14.0,85,0.00,,---,0.00,VWS V14.01,2013-07-26 02:45:00,
2013-07-25 21:50:00,83.9,78.9,30.02,SE,129,12.0,14.0,85,0.00,,---,0.00,VWS V14.01,2013-07-26 02:50:00,
2013-07-25 21:55:00,83.9,78.9,30.02,SE,145,3.0,14.0,85,0.00,,---,0.00,VWS V14.01,2013-07-26 02:55:00,
2013-07-25 22:00:00,83.9,78.6,30.02,SSE,156,7.0,16.0,84,0.00,,---,0.00,VWS V14.01,2013-07-26 03:00:00,
2013-07-25 22:05:00,83.9,78.9,30.02,SSW,212,7.0,14.0,85,0.00,,---,0.00,VWS V14.01,2013-07-26 03:05:00,
2013-07-25 22:10:00,83.9,78.9,30.02,SSE,152,4.0,16.0,85,0.00,,---,0.00,VWS V14.01,2013-07-26 03:10:00,
2013-07-25 22:15:00,83.9,78.9,30.02,South,183,10.0,16.0,85,0.00,,---,0.00,VWS V14.01,2013-07-26 03:15:00,
2013-07-25 22:20:00,83.8,78.8,30.02,SSE,158,12.0,16.0,85,0.00,,---,0.00,VWS V14.01,2013-07-26 03:20:00,
2013-07-25 22:25:00,83.8,78.8,30.02,SSE,165,12.0,16.0,85,0.00,,---,0.00,VWS V14.01,2013-07-26 03:25:00,
2013-07-25 22:31:00,83.9,78.9,30.02,SSE,167,11.0,16.0,85,0.00,,---,0.00,VWS V14.01,2013-07-26 03:31:00,
2013-07-25 22:36:00,83.7,78.3,30.02,SSW,207,13.0,16.0,84,0.00,,---,0.00,VWS V14.01,2013-07-26 03:36:00,
2013-07-25 22:41:00,83.7,78.0,30.02,South,179,8.0,16.0,83,0.00,,---,0.00,VWS V14.01,2013-07-26 03:41:00,
2013-07-25 22:46:00,83.8,78.4,30.03,South,174,14.0,16.0,84,0.00,,---,0.00,VWS V14.01,2013-07-26 03:46:00,
2013-07-25 22:51:00,83.8,78.4,30.03,SE,145,13.0,16.0,84,0.00,,---,0.00,VWS V14.01,2013-07-26 03:51:00,
2013-07-25 22:56:00,83.8,78.8,30.03,SSE,168,5.0,16.0,85,0.00,,---,0.00,VWS V14.01,2013-07-26 03:56:00,
2013-07-25 23:01:00,83.8,78.8,30.03,SSE,159,8.0,10.0,85,0.00,,---,0.00,VWS V14.01,2013-07-26 04:01:00,
2013-07-25 23:02:00,83.8,78.8,30.03,SSE,152,9.0,15.0,85,0.00,,---,0.00,VWS V14.01,2013-07-26 04:02:00,
2013-07-25 23:07:00,83.6,78.6,30.03,South,179,9.0,15.0,85,0.00,,---,0.00,VWS V14.01,2013-07-26 04:07:00,
2013-07-25 23:12:00,83.6,78.3,30.03,South,179,7.0,15.0,84,0.00,,---,0.00,VWS V14.01,2013-07-26 04:12:00,
2013-07-25 23:17:00,83.7,78.7,30.03,SSE,148,11.0,15.0,85,0.00,,---,0.00,VWS V14.01,2013-07-26 04:17:00,
2013-07-25 23:22:00,83.7,78.7,30.03,SE,141,10.0,15.0,85,0.00,,---,0.00,VWS V14.01,2013-07-26 04:22:00,
2013-07-25 23:27:00,83.6,78.6,30.03,SSE,148,7.0,15.0,85,0.00,,---,0.00,VWS V14.01,2013-07-26 04:27:00,
2013-07-25 23:32:00,83.6,79.0,30.03,South,181,10.0,15.0,86,0.00,,---,0.00,VWS V14.01,2013-07-26 04:32:00,
2013-07-25 23:37:00,83.5,78.9,30.03,South,176,8.0,15.0,86,0.00,,---,0.00,VWS V14.01,2013-07-26 04:37:00,
2013-07-25 23:42:00,83.5,78.9,30.03,SSE,154,7.0,15.0,86,0.00,,---,0.00,VWS V14.01,2013-07-26 04:42:00,
2013-07-25 23:47:00,83.5,78.9,30.03,SE,142,10.0,15.0,86,0.00,,---,0.00,VWS V14.01,2013-07-26 04:47:00,
2013-07-25 23:52:00,83.4,78.4,30.03,South,174,13.0,15.0,85,0.00,,---,0.00,VWS V14.01,2013-07-26 04:52:00,
2013-07-25 23:57:00,83.5,78.5,30.04,SSE,163,8.0,15.0,85,0.00,,---,0.00,VWS V14.01,2013-07-26 04:57:00,